TimeMDT,TemperatureF,Dew PointF,Humidity,Sea Level PressureIn,VisibilityMPH,Wind Direction,Wind SpeedMPH,Gust SpeedMPH,PrecipitationIn,Events,Conditions,WindDirDegrees,DateUTC
12:15 AM,59.0,53.6,82,30.33,10.0,Calm,Calm,-,N/A,,Scattered Clouds,0,2013-08-02 06:15:00
12:35 AM,57.2,53.6,88,30.32,10.0,SSE,3.5,-,N/A,,Scattered Clouds,150,2013-08-02 06:35:00
12:55 AM,57.2,53.6,88,30.32,10.0,SSE,3.5,-,N/A,,Partly Cloudy,150,2013-08-02 06:55:00
1:15 AM,57.2,53.6,88,30.31,10.0,Calm,Calm,-,N/A,,Partly Cloudy,0,2013-08-02 07:15:00
1:35 AM,57.2,53.6,88,30.31,10.0,North,4.6,-,N/A,,Mostly Cloudy,350,2013-08-02 07:35:00
1:55 AM,57.2,53.6,88,30.30,10.0,Calm,Calm,-,N/A,,Mostly Cloudy,0,2013-08-02 07:55:00
2:15 AM,57.2,53.6,88,30.31,10.0,Calm,Calm,-,N/A,,Mostly Cloudy,0,2013-08-02 08:15:00
2:35 AM,57.2,55.4,94,30.30,10.0,Calm,Calm,-,N/A,,Overcast,0,2013-08-02 08:35:00
2:55 AM,57.2,53.6,88,30.30,10.0,Calm,Calm,-,N/A,,Overcast,0,2013-08-02 08:55:00
3:15 AM,57.2,55.4,94,30.30,10.0,Calm,Calm,-,N/A,,Mostly Cloudy,0,2013-08-02 09:15:00
3:35 AM,57.2,53.6,88,30.29,10.0,Calm,Calm,-,N/A,,Scattered Clouds,0,2013-08-02 09:35:00
3:55 AM,55.4,53.6,94,30.27,10.0,Calm,Calm,-,N/A,,Clear,0,2013-08-02 09:55:00
4:15 AM,55.4,53.6,94,30.28,10.0,Calm,Calm,-,N/A,,Clear,0,2013-08-02 10:15:00
4:35 AM,55.4,51.8,88,30.28,10.0,Calm,Calm,-,N/A,,Clear,0,2013-08-02 10:35:00
4:55 AM,55.4,51.8,88,30.28,10.0,Calm,Calm,-,N/A,,Clear,0,2013-08-02 10:55:00
5:15 AM,53.6,51.8,94,30.28,10.0,Calm,Calm,-,N/A,,Clear,0,2013-08-02 11:15:00
5:35 AM,53.6,50.0,88,30.28,10.0,North,5.8,-,N/A,,Clear,10,2013-08-02 11:35:00
5:55 AM,53.6,50.0,88,30.29,10.0,North,4.6,-,N/A,,Clear,360,2013-08-02 11:55:00
6:15 AM,53.6,51.8,94,30.30,10.0,North,4.6,-,N/A,,Partly Cloudy,360,2013-08-02 12:15:00
6:35 AM,53.6,51.8,94,30.31,1.5,North,4.6,-,N/A,,Mostly Cloudy,360,2013-08-02 12:35:00
6:55 AM,55.4,53.6,94,30.31,8.0,Calm,Calm,-,N/A,,Scattered Clouds,0,2013-08-02 12:55:00
7:15 AM,55.4,53.6,94,30.31,10.0,Calm,Calm,-,N/A,,Clear,0,2013-08-02 13:15:00
7:35 AM,57.2,55.4,94,30.31,9.0,Calm,Calm,-,N/A,,Clear,0,2013-08-02 13:35:00
7:55 AM,57.2,55.4,94,30.32,10.0,Calm,Calm,-,N/A,,Partly Cloudy,0,2013-08-02 13:55:00
8:15 AM,60.8,55.4,82,30.31,10.0,Calm,Calm,-,N/A,,Clear,0,2013-08-02 14:15:00
8:35 AM,62.6,55.4,77,30.31,10.0,Calm,Calm,-,N/A,,Clear,0,2013-08-02 14:35:00
8:55 AM,62.6,55.4,77,30.32,10.0,Calm,Calm,-,N/A,,Clear,0,2013-08-02 14:55:00
9:15 AM,64.4,55.4,73,30.32,10.0,NW,3.5,-,N/A,,Clear,320,2013-08-02 15:15:00
9:35 AM,64.4,55.4,73,30.32,10.0,NW,5.8,-,N/A,,Clear,320,2013-08-02 15:35:00
9:55 AM,66.2,57.2,73,30.32,10.0,NW,5.8,-,N/A,,Clear,310,2013-08-02 15:55:00
10:15 AM,66.2,55.4,68,30.33,10.0,NNW,4.6,-,N/A,,Clear,330,2013-08-02 16:15:00
10:35 AM,69.8,55.4,60,30.32,10.0,North,6.9,-,N/A,,Clear,350,2013-08-02 16:35:00
10:55 AM,69.8,55.4,60,30.32,10.0,NNE,3.5,-,N/A,,Clear,30,2013-08-02 16:55:00
11:15 AM,69.8,53.6,56,30.32,10.0,NNW,3.5,-,N/A,,Clear,340,2013-08-02 17:15:00
11:35 AM,71.6,55.4,57,30.32,10.0,Calm,Calm,-,N/A,,Clear,0,2013-08-02 17:35:00
11:55 AM,73.4,53.6,50,30.31,10.0,NNW,8.1,-,N/A,,Clear,340,2013-08-02 17:55:00
12:15 PM,75.2,53.6,47,30.30,10.0,NW,9.2,-,N/A,,Clear,310,2013-08-02 18:15:00
12:35 PM,75.2,51.8,44,30.29,10.0,NW,4.6,-,N/A,,Clear,310,2013-08-02 18:35:00
12:55 PM,77.0,51.8,41,30.29,10.0,NW,9.2,-,N/A,,Clear,310,2013-08-02 18:55:00
1:15 PM,78.8,51.8,39,30.28,10.0,NW,5.8,-,N/A,,Clear,310,2013-08-02 19:15:00
1:35 PM,78.8,51.8,39,30.27,10.0,NNW,5.8,-,N/A,,Scattered Clouds,340,2013-08-02 19:35:00
1:55 PM,80.6,48.2,32,30.26,10.0,NW,4.6,-,N/A,,Partly Cloudy,320,2013-08-02 19:55:00
2:15 PM,80.6,48.2,32,30.25,10.0,North,6.9,-,N/A,,Partly Cloudy,10,2013-08-02 20:15:00
2:35 PM,82.4,48.2,30,30.25,10.0,North,9.2,-,N/A,,Partly Cloudy,360,2013-08-02 20:35:00
2:55 PM,82.4,48.2,30,30.24,10.0,Calm,Calm,-,N/A,,Partly Cloudy,0,2013-08-02 20:55:00
3:15 PM,82.4,48.2,30,30.23,10.0,Calm,Calm,-,N/A,,Clear,0,2013-08-02 21:15:00
3:35 PM,80.6,46.4,30,30.23,10.0,Calm,Calm,-,N/A,,Clear,0,2013-08-02 21:35:00
3:55 PM,-9999,-9999,N/A,30.22,10.0,West,5.8,-,N/A,,Partly Cloudy,270,2013-08-02 21:55:00
4:15 PM,-9999,-9999,N/A,30.21,10.0,North,11.5,-,N/A,,Partly Cloudy,350,2013-08-02 22:15:00
4:35 PM,-9999,-9999,N/A,30.22,10.0,NNW,6.9,-,N/A,Thunderstorm,Partly Cloudy,330,2013-08-02 22:35:00
4:55 PM,-9999,-9999,N/A,30.21,10.0,West,10.4,-,N/A,,Clear,260,2013-08-02 22:55:00
5:15 PM,78.8,50.0,36,30.22,10.0,WSW,10.4,-,N/A,,Clear,240,2013-08-02 23:15:00
5:35 PM,78.8,50.0,36,30.22,10.0,SW,10.4,-,N/A,,Scattered Clouds,230,2013-08-02 23:35:00
5:55 PM,78.8,50.0,36,30.22,10.0,SW,10.4,-,N/A,,Mostly Cloudy,230,2013-08-02 23:55:00
6:15 PM,77.0,51.8,41,30.22,10.0,SW,10.4,-,N/A,,Scattered Clouds,230,2013-08-03 00:15:00
6:35 PM,75.2,50.0,41,30.22,10.0,WSW,9.2,-,N/A,,Scattered Clouds,240,2013-08-03 00:35:00
6:55 PM,75.2,50.0,41,30.23,10.0,West,4.6,-,N/A,,Scattered Clouds,260,2013-08-03 00:55:00
7:15 PM,75.2,51.8,44,30.24,10.0,Calm,Calm,-,N/A,,Clear,0,2013-08-03 01:15:00
7:35 PM,75.2,46.4,36,30.25,10.0,North,15.0,-,N/A,,Mostly Cloudy,10,2013-08-03 01:35:00
7:55 PM,73.4,46.4,38,30.25,10.0,NNE,12.7,-,N/A,,Overcast,20,2013-08-03 01:55:00
8:15 PM,73.4,44.6,36,30.26,10.0,NNE,11.5,-,N/A,,Overcast,20,2013-08-03 02:15:00
8:35 PM,73.4,44.6,36,30.26,10.0,NNE,11.5,-,N/A,Thunderstorm,Mostly Cloudy,20,2013-08-03 02:35:00
8:55 PM,71.6,46.4,41,30.27,10.0,ENE,8.1,-,N/A,Thunderstorm,Thunderstorm,60,2013-08-03 02:55:00
9:15 PM,71.6,46.4,41,30.29,10.0,SE,10.4,-,N/A,Thunderstorm,Overcast,130,2013-08-03 03:15:00
9:35 PM,64.4,51.8,64,30.32,10.0,SSE,15.0,18.4,N/A,Thunderstorm,Overcast,150,2013-08-03 03:35:00
9:55 PM,62.6,53.6,72,30.33,10.0,SE,16.1,20.7,N/A,,Overcast,130,2013-08-03 03:55:00
10:15 PM,60.8,53.6,77,30.34,10.0,SSE,12.7,-,0.02,,Overcast,160,2013-08-03 04:15:00
10:35 PM,60.8,55.4,82,30.37,10.0,NE,4.6,-,0.03,,Overcast,40,2013-08-03 04:35:00
10:55 PM,60.8,53.6,77,30.37,10.0,ENE,4.6,-,0.04,,Overcast,70,2013-08-03 04:55:00
11:15 PM,60.8,53.6,77,30.36,10.0,NNE,3.5,-,N/A,,Overcast,20,2013-08-03 05:15:00
11:35 PM,60.8,55.4,82,30.37,10.0,South,8.1,-,0.01,,Overcast,180,2013-08-03 05:35:00
11:55 PM,60.8,55.4,82,30.39,10.0,South,8.1,-,0.02,,Overcast,180,2013-08-03 05:55:00